createdAt,value
2018-12-18T00:03:20.831Z,102025.92
2018-12-18T00:08:15.518Z,102019.85
2018-12-18T00:13:10.588Z,102026.09
2018-12-18T00:18:05.235Z,102027.08
2018-12-18T00:22:59.914Z,102028.09
2018-12-18T00:27:54.639Z,102027.23
2018-12-18T00:32:49.274Z,102031.52
2018-12-18T00:37:43.928Z,102034.41
2018-12-18T00:42:38.634Z,102035.48
2018-12-18T00:47:33.332Z,102037.86
2018-12-18T00:52:28.000Z,102026.70
2018-12-18T00:57:22.696Z,102026.98
2018-12-18T01:02:18.265Z,102018.99
2018-12-18T01:07:13.197Z,102014.66
2018-12-18T01:12:08.322Z,102007.90
2018-12-18T01:17:03.229Z,102011.70
2018-12-18T01:21:58.242Z,102005.02
2018-12-18T01:26:54.974Z,102000.94
2018-12-18T01:31:49.893Z,102000.70
2018-12-18T01:36:44.677Z,102007.42
2018-12-18T01:41:39.559Z,102008.83
2018-12-18T01:46:34.315Z,102014.59
2018-12-18T01:51:29.131Z,102016.84
2018-12-18T01:56:23.825Z,102013.83
2018-12-18T02:01:18.534Z,102008.64
2018-12-18T02:06:13.608Z,102004.77
2018-12-18T02:11:08.313Z,102003.52
2018-12-18T02:16:03.057Z,102009.70
2018-12-18T02:20:57.769Z,102011.92
2018-12-18T02:25:52.443Z,102004.06
2018-12-18T02:30:47.116Z,102007.60
2018-12-18T02:35:41.796Z,102014.60
2018-12-18T02:40:36.483Z,102018.12
2018-12-18T02:45:31.426Z,102004.16
2018-12-18T02:50:26.262Z,102014.69
2018-12-18T02:55:21.010Z,102026.08
2018-12-18T03:00:15.912Z,102035.30
2018-12-18T03:05:10.590Z,102024.42
2018-12-18T03:10:05.384Z,102018.38
2018-12-18T03:15:00.049Z,102015.84
2018-12-18T03:19:54.759Z,102013.25
2018-12-18T03:24:49.422Z,102002.81
2018-12-18T03:29:44.093Z,101991.08
2018-12-18T03:34:38.768Z,101985.41
2018-12-18T03:39:33.467Z,101988.09
2018-12-18T03:44:28.142Z,101999.03
2018-12-18T03:49:22.870Z,101986.84
2018-12-18T03:54:17.575Z,101993.89
2018-12-18T03:59:12.231Z,101996.08
2018-12-18T04:04:06.940Z,101990.00
2018-12-18T04:09:01.723Z,101991.32
2018-12-18T04:13:56.383Z,101985.69
2018-12-18T04:18:51.330Z,101986.13
2018-12-18T04:23:46.067Z,101980.49
2018-12-18T04:33:40.498Z,101964.80
2018-12-18T04:38:35.183Z,101965.23
2018-12-18T04:43:29.860Z,101960.00
2018-12-18T04:48:24.544Z,101962.21
2018-12-18T04:53:19.217Z,101967.45
2018-12-18T04:58:13.944Z,101968.75
2018-12-18T05:03:09.142Z,101958.70
2018-12-18T05:08:03.809Z,101969.10
2018-12-18T05:12:58.464Z,101969.09
2018-12-18T05:17:53.107Z,101967.75
2018-12-18T05:22:47.787Z,101972.14
2018-12-18T05:27:42.481Z,101968.19
2018-12-18T05:32:37.195Z,101972.14
2018-12-18T05:37:31.938Z,101973.04
2018-12-18T05:42:26.622Z,101984.42
2018-12-18T05:47:21.302Z,101980.55
2018-12-18T05:52:16.006Z,101975.34
2018-12-18T05:57:10.681Z,101975.34
2018-12-18T06:02:05.332Z,101973.62
2018-12-18T06:06:59.967Z,101973.22
2018-12-18T06:11:54.684Z,101973.23
2018-12-18T06:16:49.362Z,101970.16
2018-12-18T06:21:44.055Z,101974.09
2018-12-18T06:26:38.730Z,101977.16
2018-12-18T06:31:33.387Z,101975.41
2018-12-18T06:36:28.087Z,101966.70
2018-12-18T06:41:22.732Z,101972.78
2018-12-18T06:46:17.411Z,101986.34
2018-12-18T06:51:12.159Z,101983.27
2018-12-18T06:56:06.856Z,101983.72
2018-12-18T07:01:01.827Z,101981.09
2018-12-18T07:05:56.492Z,101974.52
2018-12-18T07:10:51.193Z,101967.94
2018-12-18T07:15:46.168Z,101959.66
2018-12-18T07:20:40.895Z,101954.39
2018-12-18T07:25:35.559Z,101933.00
2018-12-18T07:30:30.301Z,101918.13
2018-12-18T07:35:24.985Z,101909.39
2018-12-18T07:40:19.650Z,101910.18
2018-12-18T07:45:14.308Z,101908.83
2018-12-18T07:50:09.039Z,101898.65
2018-12-18T07:55:03.721Z,101888.48
2018-12-18T07:59:58.541Z,101895.73
2018-12-18T08:04:53.252Z,101905.17
2018-12-18T08:09:47.942Z,101898.16
2018-12-18T08:14:42.864Z,101908.31
2018-12-18T08:19:37.915Z,101894.89
2018-12-18T08:24:32.632Z,101902.90
2018-12-18T08:29:27.495Z,101911.55
2018-12-18T08:34:22.201Z,101907.00
2018-12-18T08:39:17.050Z,101894.86
2018-12-18T08:44:11.771Z,101879.73
2018-12-18T08:49:06.467Z,101865.92
2018-12-18T08:54:01.324Z,101859.48
2018-12-18T08:58:56.046Z,101844.70
2018-12-18T09:03:50.803Z,101825.22
2018-12-18T09:08:45.527Z,101822.67
2018-12-18T09:13:40.255Z,101828.50
2018-12-18T09:18:34.984Z,101838.98
2018-12-18T09:23:29.663Z,101831.94
2018-12-18T09:28:24.367Z,101823.20
2018-12-18T09:33:19.073Z,101823.80
2018-12-18T09:38:18.850Z,101825.54
2018-12-18T09:43:18.654Z,101843.64
2018-12-18T09:48:13.311Z,101834.19
2018-12-18T09:53:08.198Z,101834.55
2018-12-18T09:58:04.992Z,101819.58
2018-12-18T10:02:59.701Z,101813.19
2018-12-18T10:07:54.430Z,101804.94
2018-12-18T10:12:54.057Z,101807.95
2018-12-18T10:17:48.790Z,101795.91
2018-12-18T10:22:43.454Z,101784.19
2018-12-18T10:27:38.154Z,101769.31
2018-12-18T10:32:32.910Z,101767.95
2018-12-18T10:37:27.604Z,101755.09
2018-12-18T10:42:22.337Z,101751.95
2018-12-18T10:47:17.044Z,101744.66
2018-12-18T10:52:11.762Z,101737.02
2018-12-18T10:57:06.484Z,101721.34
2018-12-18T11:02:04.588Z,101697.84
2018-12-18T11:06:59.368Z,101696.89
2018-12-18T11:11:54.075Z,101686.06
2018-12-18T11:16:48.753Z,101676.35
2018-12-18T11:21:43.401Z,101657.16
2018-12-18T11:26:38.153Z,101655.23
2018-12-18T11:31:32.833Z,101652.60
2018-12-18T11:36:27.501Z,101650.84
2018-12-18T11:41:22.209Z,101630.76
2018-12-18T11:46:16.916Z,101620.60
2018-12-18T11:51:11.633Z,101609.77
2018-12-18T11:56:06.402Z,101606.70
2018-12-18T12:01:01.736Z,101605.38
2018-12-18T12:05:56.435Z,101612.91
2018-12-18T12:10:51.123Z,101617.51
2018-12-18T12:15:45.824Z,101609.16
2018-12-18T12:20:40.500Z,101599.83
2018-12-18T12:25:35.168Z,101614.38
2018-12-18T12:30:29.835Z,101614.73
2018-12-18T12:35:24.517Z,101610.78
2018-12-18T12:40:19.182Z,101609.23
2018-12-18T12:45:14.257Z,101609.44
2018-12-18T12:50:09.056Z,101595.15
2018-12-18T12:55:04.863Z,101595.69
2018-12-18T12:59:59.647Z,101581.11
2018-12-18T13:04:54.355Z,101579.75
2018-12-18T13:09:51.188Z,101568.48
2018-12-18T13:14:46.496Z,101577.80
2018-12-18T13:19:41.762Z,101568.87
2018-12-18T13:24:36.464Z,101563.37
2018-12-18T13:29:32.218Z,101566.63
2018-12-18T13:34:27.295Z,101543.70
2018-12-18T13:39:22.507Z,101536.52
2018-12-18T13:44:17.368Z,101516.19
2018-12-18T13:49:12.338Z,101519.53
2018-12-18T13:54:07.109Z,101508.27
2018-12-18T13:59:02.246Z,101492.67
2018-12-18T14:03:57.501Z,101498.02
2018-12-18T14:08:52.800Z,101491.98
2018-12-18T14:13:47.766Z,101481.59
2018-12-18T14:18:43.860Z,101475.11
2018-12-18T14:23:40.243Z,101471.30
2018-12-18T14:28:35.583Z,101451.38
2018-12-18T14:33:30.309Z,101442.82
2018-12-18T14:38:25.778Z,101432.97
2018-12-18T14:43:21.165Z,101445.41
2018-12-18T14:48:16.384Z,101447.77
2018-12-18T14:53:11.413Z,101444.83
2018-12-18T14:58:07.633Z,101433.17
2018-12-18T15:03:02.715Z,101426.73
2018-12-18T15:07:57.431Z,101414.69
2018-12-18T15:12:52.543Z,101409.61
2018-12-18T15:17:48.032Z,101410.21
2018-12-18T15:22:43.919Z,101408.22
2018-12-18T15:27:39.630Z,101405.32
2018-12-18T15:32:35.451Z,101396.66
2018-12-18T15:37:32.481Z,101388.90
2018-12-18T15:42:27.274Z,101394.62
2018-12-18T15:47:21.946Z,101393.36
2018-12-18T15:52:17.831Z,101387.70
2018-12-18T15:57:12.686Z,101367.23
2018-12-18T16:02:07.360Z,101353.31
2018-12-18T16:07:02.039Z,101344.53
2018-12-18T16:11:56.790Z,101325.33
2018-12-18T16:16:51.572Z,101321.00
2018-12-18T16:21:46.792Z,101332.45
2018-12-18T16:26:41.490Z,101328.11
2018-12-18T16:31:37.335Z,101318.94
2018-12-18T16:36:32.046Z,101332.49
2018-12-18T16:41:26.733Z,101325.50
2018-12-18T16:46:21.428Z,101333.33
2018-12-18T16:51:16.093Z,101315.83
2018-12-18T16:56:10.789Z,101314.56
2018-12-18T17:01:05.520Z,101307.13
2018-12-18T17:06:00.224Z,101292.34
2018-12-18T17:10:54.892Z,101294.13
2018-12-18T17:15:49.606Z,101301.56
2018-12-18T17:20:44.331Z,101295.97
2018-12-18T17:25:38.982Z,101300.89
2018-12-18T17:30:33.662Z,101295.25
2018-12-18T17:35:28.400Z,101283.09
2018-12-18T17:40:23.278Z,101278.41
2018-12-18T17:45:18.007Z,101260.68
2018-12-18T17:50:12.722Z,101272.48
2018-12-18T17:55:07.607Z,101254.25
2018-12-18T18:00:02.674Z,101239.08
2018-12-18T18:04:57.378Z,101223.86
2018-12-18T18:09:52.467Z,101214.77
2018-12-18T18:14:47.175Z,101198.25
2018-12-18T18:19:41.911Z,101186.05
2018-12-18T18:24:36.665Z,101181.73
2018-12-18T18:29:31.400Z,101166.88
2018-12-18T18:34:26.241Z,101175.73
2018-12-18T18:39:20.941Z,101146.83
2018-12-18T18:44:15.641Z,101143.28
2018-12-18T18:49:10.314Z,101124.54
2018-12-18T18:54:05.145Z,101118.83
2018-12-18T18:58:59.992Z,101117.08
2018-12-18T19:03:55.110Z,101097.45
2018-12-18T19:08:49.809Z,101101.78
2018-12-18T19:13:44.524Z,101110.07
2018-12-18T19:18:39.207Z,101093.48
2018-12-18T19:23:34.052Z,101089.99
2018-12-18T19:28:28.847Z,101107.95
2018-12-18T19:33:23.503Z,101086.06
2018-12-18T19:38:18.278Z,101085.62
2018-12-18T19:43:12.946Z,101078.67
2018-12-18T19:48:07.608Z,101056.88
2018-12-18T19:53:02.387Z,101055.95
2018-12-18T19:57:57.055Z,101068.23
2018-12-18T20:02:51.750Z,101068.66
2018-12-18T20:07:46.417Z,101078.80
2018-12-18T20:12:41.147Z,101066.62
2018-12-18T20:17:35.829Z,101064.78
2018-12-18T20:22:31.253Z,101054.16
2018-12-18T20:27:25.923Z,101054.84
2018-12-18T20:32:20.627Z,101047.25
2018-12-18T20:37:18.335Z,101029.58
2018-12-18T20:42:13.156Z,101000.83
2018-12-18T20:47:07.882Z,100999.17
2018-12-18T20:52:02.572Z,101007.83
2018-12-18T20:56:57.765Z,100989.90
2018-12-18T21:01:52.468Z,100993.78
2018-12-18T21:06:47.158Z,100984.66
2018-12-18T21:11:41.889Z,100975.00
2018-12-18T21:16:36.726Z,100968.36
2018-12-18T21:21:31.445Z,100964.70
2018-12-18T21:26:26.182Z,100952.42
2018-12-18T21:31:21.055Z,100939.16
2018-12-18T21:36:15.746Z,100936.73
2018-12-18T21:41:10.413Z,100946.20
2018-12-18T21:46:05.123Z,100920.31
2018-12-18T21:50:59.913Z,100902.34
2018-12-18T21:55:54.626Z,100891.89
2018-12-18T22:00:49.383Z,100909.81
2018-12-18T22:05:44.100Z,100891.89
2018-12-18T22:10:38.869Z,100896.70
2018-12-18T22:15:33.590Z,100856.70
2018-12-18T22:20:28.306Z,100853.92
2018-12-18T22:25:22.980Z,100848.96
2018-12-18T22:30:18.111Z,100860.53
2018-12-18T22:35:13.676Z,100884.33
2018-12-18T22:40:09.389Z,100889.53
2018-12-18T22:45:04.301Z,100846.67
2018-12-18T22:49:59.008Z,100844.05
2018-12-18T22:54:55.547Z,100832.72
2018-12-18T22:59:50.343Z,100826.98
2018-12-18T23:04:47.146Z,100834.63
2018-12-18T23:09:43.640Z,100826.03
2018-12-18T23:14:38.321Z,100820.44
2018-12-18T23:19:33.433Z,100804.80
2018-12-18T23:24:28.875Z,100794.70
2018-12-18T23:29:25.080Z,100779.92
2018-12-18T23:34:21.398Z,100776.13
2018-12-18T23:39:20.471Z,100773.55
2018-12-18T23:44:15.834Z,100785.73
2018-12-18T23:49:11.126Z,100790.11
2018-12-18T23:54:06.425Z,100775.12
2018-12-18T23:59:01.107Z,100795.95
